Latest Weather Observations for Lihou Reef Lighthouse

IDQ60801

Issued at 6:05 pm EST Sunday 31 August 2014 (issued every 30 minutes, with the page automatically refreshed every 10 minutes)

About weather observations | Map of weather stations | Latest weather observations for QLD | Other Formats
Station Details ID: 200880 Name: LIHOU REEF LIGHTHOUSE Lat: -17.13 Lon: 152.15 Height: 0.0 m
Data from the previous 72 hours. | See also: Recent months for locations in Queensland
Date/Time
EST
Temp
°C
App
Temp
°C
Dew
Point
Rel
Hum
%
Delta-T
°C
Wind Press
QNH
hPa
Press
MSL
hPa
Rain
since 9 am
mm
Dir
 
Spd
km/h
Gust
km/h
Spd
kts
Gust
kts
31/06:00pm 23.1 - - - - SE 35 43 19 23 1014.8 1014.7 -
31/05:30pm 22.9 - - - - SE 35 41 19 22 1014.5 1014.4 -
31/05:00pm 22.9 - - - - SE 37 44 20 24 1014.3 1014.2 -
31/04:30pm 23.0 - - - - SE 37 44 20 24 1013.8 1013.7 -
31/04:00pm 23.0 - - - - SE 39 46 21 25 1013.3 1013.2 -
31/03:30pm 22.9 - - - - SE 41 48 22 26 1013.2 1013.1 -
31/03:00pm 22.7 - - - - SE 37 43 20 23 1013.2 1013.1 -
31/02:30pm 22.9 - - - - SE 37 48 20 26 1013.2 1013.1 -
31/02:00pm 23.3 - - - - SE 33 37 18 20 1013.4 1013.3 -
31/01:30pm 23.2 - - - - SE 32 37 17 20 1013.5 1013.4 -
31/01:00pm 23.3 - - - - SE 33 39 18 21 1013.8 1013.7 -
31/12:30pm 23.4 - - - - SE 33 39 18 21 1014.4 1014.3 -
31/12:00pm 23.4 - - - - SE 32 37 17 20 1014.7 1014.6 -
31/11:30am 23.3 - - - - SE 30 35 16 19 1015.3 1015.2 -
31/11:00am 23.3 - - - - SE 28 33 15 18 1015.6 1015.5 -
31/10:30am 23.3 - - - - SSE 32 37 17 20 1015.7 1015.6 -
31/10:00am 23.3 - - - - SSE 30 35 16 19 1016.0 1015.9 -
31/09:30am 23.4 - - - - SE 30 35 16 19 1016.1 1016.0 -
31/09:00am 23.3 - - - - SE 30 33 16 18 1016.2 1016.1 -
31/08:30am 23.4 - - - - SE 30 35 16 19 1015.9 1015.8 -
31/08:00am 23.2 - - - - SSE 32 37 17 20 1015.7 1015.6 -
31/07:30am 23.1 - - - - SSE 33 41 18 22 1015.3 1015.2 -
31/07:00am 23.2 - - - - SE 30 35 16 19 1015.0 1014.9 -
31/06:30am 23.1 - - - - SE 32 37 17 20 1014.7 1014.6 -
31/06:00am 23.0 - - - - SE 30 33 16 18 1014.8 1014.7 -
31/05:30am 23.0 - - - - SE 30 33 16 18 1014.5 1014.4 -
31/05:00am 22.9 - - - - SE 30 35 16 19 1014.4 1014.3 -
31/04:30am 23.0 - - - - SE 32 35 17 19 1014.2 1014.1 -
31/04:00am 23.0 - - - - SE 32 37 17 20 1014.1 1014.0 -
31/03:30am 22.9 - - - - SE 32 35 17 19 1014.1 1014.0 -
31/03:00am 23.0 - - - - SE 32 37 17 20 1013.8 1013.7 -
31/02:30am 22.9 - - - - SE 33 39 18 21 1014.0 1013.9 -
31/02:00am 23.0 - - - - SE 32 35 17 19 1014.4 1014.3 -
31/01:30am 23.0 - - - - SE 33 39 18 21 1014.5 1014.4 -
31/01:00am 23.0 - - - - SE 32 39 17 21 1014.9 1014.8 -
31/12:30am 22.6 - - - - SE 33 39 18 21 1015.1 1015.0 -
31/12:00am 22.5 - - - - SE 33 43 18 23 1015.4 1015.3 -
 
Date/Time
EST
Temp
°C
App
Temp
°C
Dew
Point
Rel
Hum
%
Delta-T
°C
Wind Press
QNH
hPa
Press
MSL
hPa
Rain
since 9 am
mm
Dir
 
Spd
km/h
Gust
km/h
Spd
kts
Gust
kts
30/11:30pm 22.7 - - - - SE 33 41 18 22 1015.8 1015.7 -
30/11:00pm 22.6 - - - - SE 33 39 18 21 1016.0 1015.9 -
30/10:30pm 22.5 - - - - SE 33 37 18 20 1016.1 1016.0 -
30/10:00pm 23.0 - - - - SE 32 37 17 20 1016.4 1016.3 -
30/09:30pm 23.0 - - - - SE 30 35 16 19 1016.5 1016.4 -
30/09:00pm 22.6 - - - - SE 32 39 17 21 1016.3 1016.2 -
30/08:30pm 21.4 - - - - SE 33 39 18 21 1016.5 1016.4 -
30/08:00pm 22.4 - - - - SE 24 33 13 18 1016.5 1016.4 -
30/07:30pm 20.9 - - - - ESE 39 46 21 25 1016.5 1016.4 -
30/07:19pm 21.4 - - - - ESE 32 52 17 28 1016.1 1016.0 -
30/07:00pm 21.5 - - - - SE 26 33 14 18 1016.1 1016.0 -
30/06:30pm 21.7 - - - - ESE 37 43 20 23 1015.6 1015.5 -
30/06:00pm 23.3 - - - - SE 32 37 17 20 1015.4 1015.3 -
30/05:30pm 23.1 - - - - SE 32 39 17 21 1015.0 1014.9 -
30/05:00pm 22.8 - - - - SSE 33 41 18 22 1014.5 1014.4 -
30/04:30pm 22.8 - - - - SE 33 39 18 21 1014.0 1013.9 -
30/04:00pm 22.6 - - - - SE 37 43 20 23 1013.7 1013.6 -
30/03:30pm 22.8 - - - - SE 37 43 20 23 1013.7 1013.6 -
30/03:00pm 22.8 - - - - SE 37 43 20 23 1013.5 1013.4 -
30/02:30pm 22.7 - - - - SE 37 46 20 25 1013.6 1013.5 -
30/02:00pm 22.1 - - - - SE 37 50 20 27 1013.8 1013.7 -
30/01:30pm 21.3 - - - - SE 22 32 12 17 1014.7 1014.6 -
30/01:00pm 20.8 - - - - SSE 32 39 17 21 1015.5 1015.4 -
30/12:30pm 22.1 - - - - SSE 35 43 19 23 1015.7 1015.6 -
30/12:00pm 21.8 - - - - SSE 32 43 17 23 1015.9 1015.8 -
30/11:30am 22.6 - - - - SE 28 39 15 21 1015.7 1015.6 -
30/11:00am 22.9 - - - - SE 30 37 16 20 1015.6 1015.5 -
30/10:30am 22.9 - - - - SE 30 37 16 20 1015.9 1015.8 -
30/10:00am 23.5 - - - - ESE 32 35 17 19 1015.8 1015.7 -
30/09:30am 23.7 - - - - ESE 33 39 18 21 1015.6 1015.5 -
30/09:00am 23.7 - - - - ESE 33 39 18 21 1015.9 1015.8 -
30/08:30am 23.8 - - - - ESE 33 39 18 21 1016.0 1015.9 -
30/08:00am 23.7 - - - - SE 32 39 17 21 1016.3 1016.2 -
30/07:30am 23.3 - - - - SE 32 37 17 20 1016.2 1016.1 -
30/07:00am 23.3 - - - - SE 30 37 16 20 1016.1 1016.0 -
30/06:30am 23.2 - - - - SE 32 37 17 20 1015.7 1015.6 -
30/06:00am 23.0 - - - - SE 32 37 17 20 1015.5 1015.4 -
30/05:30am 23.2 - - - - SE 32 37 17 20 1015.4 1015.3 -
30/05:00am 23.2 - - - - SE 30 37 16 20 1015.2 1015.1 -
30/04:30am 23.1 - - - - SE 33 37 18 20 1014.8 1014.7 -
30/04:00am 23.2 - - - - SE 33 39 18 21 1014.8 1014.7 -
30/03:30am 23.1 - - - - SE 32 37 17 20 1014.8 1014.7 -
30/03:00am 23.1 - - - - SE 33 39 18 21 1014.9 1014.8 -
30/02:30am 23.3 - - - - SE 32 35 17 19 1015.1 1015.0 -
30/02:00am 23.3 - - - - SE 32 37 17 20 1015.3 1015.2 -
30/01:30am 23.2 - - - - SE 35 41 19 22 1015.2 1015.1 -
30/01:00am 23.3 - - - - SE 35 39 19 21 1015.4 1015.3 -
30/12:30am 22.1 - - - - SSE 37 43 20 23 1015.5 1015.4 -
30/12:23am 22.6 - - - - SSE 37 43 20 23 1015.6 1015.5 -
30/12:00am 22.1 - - - - SE 32 37 17 20 1016.1 1016.0 -
 
Date/Time
EST
Temp
°C
App
Temp
°C
Dew
Point
Rel
Hum
%
Delta-T
°C
Wind Press
QNH
hPa
Press
MSL
hPa
Rain
since 9 am
mm
Dir
 
Spd
km/h
Gust
km/h
Spd
kts
Gust
kts
29/11:30pm 22.6 - - - - SE 35 44 19 24 1016.1 1016.0 -
29/11:00pm 22.0 - - - - ESE 32 41 17 22 1016.5 1016.4 -
29/10:30pm 23.0 - - - - SE 37 46 20 25 1016.4 1016.3 -
29/10:00pm 23.3 - - - - SE 37 43 20 23 1016.5 1016.4 -
29/09:30pm 23.5 - - - - SE 33 39 18 21 1016.6 1016.5 -
29/09:00pm 23.4 - - - - SE 35 41 19 22 1016.3 1016.2 -
29/08:30pm 23.5 - - - - SE 37 46 20 25 1016.0 1015.9 -
29/08:00pm 23.4 - - - - SE 37 46 20 25 1015.9 1015.8 -
29/07:30pm 23.5 - - - - SE 41 50 22 27 1015.7 1015.6 -
29/07:00pm 23.4 - - - - SE 39 46 21 25 1015.5 1015.4 -
29/06:30pm 23.4 - - - - SE 39 44 21 24 1015.1 1015.0 -
29/06:00pm 23.3 - - - - SE 41 48 22 26 1014.6 1014.5 -
29/05:30pm 23.3 - - - - SSE 41 46 22 25 1014.2 1014.1 -
29/05:00pm 23.5 - - - - SSE 39 46 21 25 1014.1 1014.0 -
29/04:30pm 23.5 - - - - SSE 39 44 21 24 1014.1 1014.0 -
29/04:00pm 23.4 - - - - SSE 37 44 20 24 1014.2 1014.1 -
29/03:30pm 23.5 - - - - SSE 37 43 20 23 1014.1 1014.0 -
29/03:00pm 23.3 - - - - SE 35 41 19 22 1014.1 1014.0 -
29/02:30pm 23.5 - - - - SE 37 43 20 23 1014.2 1014.1 -
29/02:00pm 23.4 - - - - SE 37 44 20 24 1014.3 1014.2 -
29/01:30pm 23.4 - - - - SE 37 43 20 23 1014.7 1014.6 -
29/01:00pm 23.3 - - - - SE 33 41 18 22 1015.1 1015.0 -
29/12:30pm 23.2 - - - - SE 33 39 18 21 1015.4 1015.3 -
29/12:00pm 23.2 - - - - SE 37 43 20 23 1015.6 1015.5 -
29/11:30am 23.0 - - - - SE 35 39 19 21 1016.1 1016.0 -
29/11:00am 23.0 - - - - SE 37 44 20 24 1016.5 1016.4 -
29/10:30am 22.8 - - - - SE 33 43 18 23 1016.6 1016.5 -
29/10:00am 22.9 - - - - SE 35 43 19 23 1016.9 1016.8 -
29/09:30am 22.6 - - - - SSE 37 43 20 23 1017.0 1016.9 -
29/09:00am 22.4 - - - - SE 33 41 18 22 1017.2 1017.1 -
29/08:30am 22.4 - - - - SE 33 41 18 22 1017.0 1016.9 -
29/08:00am 22.2 - - - - SSE 33 37 18 20 1016.9 1016.8 -
29/07:30am 22.2 - - - - SSE 30 37 16 20 1016.7 1016.6 -
29/07:00am 21.8 - - - - SSE 30 35 16 19 1016.5 1016.4 -
29/06:30am 21.6 - - - - SSE 33 41 18 22 1016.3 1016.2 -
29/06:00am 21.6 - - - - SSE 32 41 17 22 1015.9 1015.8 -
29/05:30am 21.5 - - - - SSE 30 39 16 21 1015.9 1015.8 -
29/05:00am 21.6 - - - - SSE 28 37 15 20 1016.0 1015.9 -
29/04:30am 21.5 - - - - SSE 28 35 15 19 1015.7 1015.6 -
29/04:00am 21.4 - - - - SSE 28 35 15 19 1015.8 1015.7 -
29/03:30am 21.6 - - - - SSE 30 35 16 19 1015.9 1015.8 -
29/03:00am 21.8 - - - - S 30 35 16 19 1015.8 1015.7 -
29/02:30am 21.8 - - - - SSE 30 35 16 19 1016.1 1016.0 -
29/02:00am 21.9 - - - - SSE 26 33 14 18 1016.4 1016.3 -
29/01:30am 21.9 - - - - SSE 28 37 15 20 1016.4 1016.3 -
29/01:00am 22.0 - - - - SSE 28 37 15 20 1016.6 1016.5 -
29/12:30am 22.1 - - - - SSE 30 35 16 19 1017.0 1016.9 -
29/12:00am 22.1 - - - - SSE 30 35 16 19 1017.2 1017.1 -
 
Date/Time
EST
Temp
°C
App
Temp
°C
Dew
Point
Rel
Hum
%
Delta-T
°C
Wind Press
QNH
hPa
Press
MSL
hPa
Rain
since 9 am
mm
Dir
 
Spd
km/h
Gust
km/h
Spd
kts
Gust
kts
28/11:30pm 22.3 - - - - SSE 30 33 16 18 1017.5 1017.4 -
28/11:00pm 22.4 - - - - SSE 30 37 16 20 1017.6 1017.5 -
28/10:30pm 22.5 - - - - SSE 30 37 16 20 1017.5 1017.4 -
28/10:00pm 22.6 - - - - SSE 32 41 17 22 1017.3 1017.2 -
28/09:30pm 22.7 - - - - S 32 44 17 24 1017.3 1017.2 -
28/09:00pm 22.8 - - - - S 32 37 17 20 1017.4 1017.3 -
28/08:30pm 22.8 - - - - SSE 35 44 19 24 1017.1 1017.0 -
28/08:00pm 22.7 - - - - S 33 41 18 22 1016.9 1016.8 -
28/07:30pm 22.8 - - - - S 32 39 17 21 1016.8 1016.7 -
28/07:00pm 22.8 - - - - S 33 41 18 22 1016.3 1016.2 -
28/06:30pm 22.8 - - - - S 32 41 17 22 1016.0 1015.9 -

Other Formats:

Comma delimited format used in spreadsheet applications
http://www.bom.gov.au/fwo/IDQ60801/IDQ60801.94293.axf

JavaScript Object Notation format (JSON) in row-major order
http://www.bom.gov.au/fwo/IDQ60801/IDQ60801.94293.json